createdAt,value
2024-05-09T00:01:14.435Z,13.60
2024-05-09T00:03:46.864Z,13.60
2024-05-09T00:06:19.335Z,13.50
2024-05-09T00:08:49.144Z,13.50
2024-05-09T00:11:20.384Z,13.40
2024-05-09T00:13:50.272Z,13.40
2024-05-09T00:16:20.007Z,13.30
2024-05-09T00:18:49.800Z,13.30
2024-05-09T00:21:22.130Z,13.30
2024-05-09T00:23:51.852Z,13.20
2024-05-09T00:26:21.609Z,13.20
2024-05-09T00:28:51.445Z,13.20
2024-05-09T00:31:21.120Z,13.20
2024-05-09T00:33:51.129Z,13.20
2024-05-09T00:36:23.627Z,13.10
2024-05-09T00:38:53.368Z,13.00
2024-05-09T00:41:23.111Z,13.10
2024-05-09T00:43:52.952Z,13.00
2024-05-09T00:46:23.692Z,12.90
2024-05-09T00:48:53.705Z,12.90
2024-05-09T00:51:26.100Z,12.90
2024-05-09T00:53:56.111Z,12.80
2024-05-09T00:56:26.069Z,12.80
2024-05-09T00:58:56.471Z,12.80
2024-05-09T01:01:27.341Z,12.70
2024-05-09T01:03:57.363Z,12.70
2024-05-09T01:06:29.775Z,12.70
2024-05-09T01:08:59.496Z,12.60
2024-05-09T01:11:36.322Z,12.60
2024-05-09T01:14:06.217Z,12.50
2024-05-09T01:16:36.324Z,12.40
2024-05-09T01:19:07.910Z,12.30
2024-05-09T01:21:43.126Z,12.30
2024-05-09T01:24:15.432Z,12.30
2024-05-09T01:26:45.130Z,12.40
2024-05-09T01:29:14.957Z,12.40
2024-05-09T01:31:44.718Z,12.40
2024-05-09T01:34:14.510Z,12.30
2024-05-09T01:36:44.282Z,12.20
2024-05-09T01:39:16.571Z,12.20
2024-05-09T01:41:46.278Z,12.10
2024-05-09T01:44:15.973Z,12.20
2024-05-09T01:46:45.727Z,12.20
2024-05-09T01:49:15.688Z,12.20
2024-05-09T01:51:45.446Z,12.20
2024-05-09T01:54:17.763Z,12.10
2024-05-09T01:56:47.437Z,12.00
2024-05-09T01:59:17.223Z,12.00
2024-05-09T02:01:56.548Z,12.00
2024-05-09T02:04:27.679Z,11.90
2024-05-09T02:06:57.506Z,11.90
2024-05-09T02:09:29.851Z,11.90
2024-05-09T02:11:59.607Z,11.80
2024-05-09T02:14:29.455Z,11.80
2024-05-09T02:16:59.197Z,11.70
2024-05-09T02:19:29.148Z,11.70
2024-05-09T02:21:58.882Z,11.60
2024-05-09T02:24:31.233Z,11.70
2024-05-09T02:27:00.975Z,11.70
2024-05-09T02:29:30.826Z,11.70
2024-05-09T02:32:01.620Z,11.60
2024-05-09T02:34:31.571Z,11.70
2024-05-09T02:36:58.891Z,11.60
2024-05-09T02:39:31.203Z,11.60
2024-05-09T02:41:58.282Z,11.50
2024-05-09T02:44:28.034Z,11.50
2024-05-09T02:46:55.160Z,11.50
2024-05-09T02:49:24.980Z,11.40
2024-05-09T02:51:52.132Z,11.30
2024-05-09T02:54:21.835Z,11.30
2024-05-09T02:56:54.124Z,11.30
2024-05-09T02:59:21.478Z,11.20
2024-05-09T03:01:51.392Z,11.20
2024-05-09T03:04:18.959Z,11.20
2024-05-09T03:06:49.982Z,11.20
2024-05-09T03:09:17.756Z,11.10
2024-05-09T03:11:47.659Z,11.10
2024-05-09T03:14:19.535Z,11.10
2024-05-09T03:16:49.284Z,11.10
2024-05-09T03:19:17.067Z,11.10
2024-05-09T03:21:46.914Z,11.00
2024-05-09T03:24:13.978Z,11.00
2024-05-09T03:26:44.223Z,10.90
2024-05-09T03:29:11.285Z,11.00
2024-05-09T03:31:44.263Z,11.00
2024-05-09T03:34:11.660Z,11.00
2024-05-09T03:36:44.537Z,11.00
2024-05-09T03:39:14.494Z,10.90
2024-05-09T03:41:44.221Z,10.90
2024-05-09T03:44:13.999Z,10.90
2024-05-09T03:46:46.320Z,10.90
2024-05-09T03:49:13.809Z,10.80
2024-05-09T03:51:43.595Z,10.80
2024-05-09T03:54:10.705Z,10.80
2024-05-09T03:56:40.654Z,10.80
2024-05-09T03:59:08.065Z,10.80
2024-05-09T04:01:37.919Z,10.70
2024-05-09T04:04:09.593Z,10.70
2024-05-09T04:06:39.311Z,10.60
2024-05-09T04:09:06.455Z,10.60
2024-05-09T04:11:36.304Z,10.50
2024-05-09T04:14:03.532Z,10.60
2024-05-09T04:16:33.272Z,10.60
2024-05-09T04:19:00.448Z,10.60
2024-05-09T04:21:32.834Z,10.50
2024-05-09T04:23:59.938Z,10.40
2024-05-09T04:26:29.714Z,10.50
2024-05-09T04:28:57.038Z,10.50
2024-05-09T04:31:29.317Z,10.50
2024-05-09T04:33:56.589Z,10.50
2024-05-09T04:36:26.356Z,10.50
2024-05-09T04:38:56.097Z,10.50
2024-05-09T04:41:26.669Z,10.60
2024-05-09T04:43:53.874Z,10.50
2024-05-09T04:46:23.585Z,10.50
2024-05-09T04:48:50.826Z,10.50
2024-05-09T04:51:20.562Z,10.40
2024-05-09T04:53:47.689Z,10.40
2024-05-09T04:56:20.092Z,10.40
2024-05-09T04:58:47.247Z,10.40
2024-05-09T05:01:18.051Z,10.40
2024-05-09T05:03:45.356Z,10.40
2024-05-09T05:06:15.137Z,10.50
2024-05-09T05:08:42.322Z,10.50
2024-05-09T05:11:14.099Z,10.50
2024-05-09T05:13:44.040Z,10.50
2024-05-09T05:16:13.822Z,10.60
2024-05-09T05:18:40.989Z,10.60
2024-05-09T05:21:10.731Z,10.60
2024-05-09T05:23:38.076Z,10.70
2024-05-09T05:26:08.211Z,10.70
2024-05-09T05:28:35.341Z,10.70
2024-05-09T05:31:07.797Z,10.70
2024-05-09T05:33:35.010Z,10.80
2024-05-09T05:36:04.818Z,10.80
2024-05-09T05:38:32.068Z,10.90
2024-05-09T05:41:01.856Z,10.90
2024-05-09T05:43:29.645Z,10.90
2024-05-09T05:45:59.393Z,10.90
2024-05-09T05:48:29.610Z,10.90
2024-05-09T05:51:01.923Z,10.90
2024-05-09T05:53:30.921Z,10.90
2024-05-09T05:56:00.646Z,11.00
2024-05-09T05:58:27.764Z,10.90
2024-05-09T06:00:57.533Z,11.00
2024-05-09T06:03:24.680Z,11.00
2024-05-09T06:05:57.196Z,11.00
2024-05-09T06:08:27.114Z,11.10
2024-05-09T06:10:58.610Z,11.10
2024-05-09T06:13:25.780Z,11.10
2024-05-09T06:15:55.476Z,11.10
2024-05-09T06:18:22.685Z,11.20
2024-05-09T06:20:52.737Z,11.20
2024-05-09T06:23:22.694Z,11.20
2024-05-09T06:25:52.514Z,11.30
2024-05-09T06:28:19.678Z,11.30
2024-05-09T06:30:49.556Z,11.40
2024-05-09T06:33:17.098Z,11.40
2024-05-09T06:35:48.508Z,11.50
2024-05-09T06:38:15.747Z,11.50
2024-05-09T06:40:48.184Z,11.50
2024-05-09T06:43:17.938Z,11.60
2024-05-09T06:45:49.465Z,11.60
2024-05-09T06:48:19.145Z,11.70
2024-05-09T06:50:49.465Z,11.70
2024-05-09T06:53:17.495Z,11.80
2024-05-09T06:55:50.206Z,11.80
2024-05-09T06:58:17.487Z,11.90
2024-05-09T07:00:47.346Z,11.90
2024-05-09T07:03:17.820Z,12.00
2024-05-09T07:05:49.760Z,12.00
2024-05-09T07:08:17.622Z,12.10
2024-05-09T07:10:50.352Z,12.10
2024-05-09T07:13:17.824Z,12.20
2024-05-09T07:15:47.634Z,12.20
2024-05-09T07:18:17.855Z,12.20
2024-05-09T07:20:49.692Z,12.30
2024-05-09T07:23:17.966Z,12.40
2024-05-09T07:25:50.419Z,12.40
2024-05-09T07:28:19.381Z,12.50
2024-05-09T07:30:49.398Z,12.50
2024-05-09T07:33:16.948Z,12.50
2024-05-09T07:35:46.915Z,12.60
2024-05-09T07:38:14.336Z,12.70
2024-05-09T07:40:44.160Z,12.70
2024-05-09T07:43:14.989Z,12.80
2024-05-09T07:45:51.855Z,12.80
2024-05-09T07:52:38.324Z,13.00
2024-05-09T07:53:46.302Z,13.10
2024-05-09T07:56:21.855Z,13.10
2024-05-09T07:58:53.830Z,13.20
2024-05-09T08:01:25.882Z,13.30
2024-05-09T08:03:53.742Z,13.30
2024-05-09T08:06:23.869Z,13.40
2024-05-09T08:08:51.075Z,13.50
2024-05-09T08:11:21.737Z,13.50
2024-05-09T08:13:48.833Z,13.60
2024-05-09T08:16:21.403Z,13.70
2024-05-09T08:18:49.124Z,13.70
2024-05-09T08:21:19.445Z,13.80
2024-05-09T08:23:46.579Z,13.90
2024-05-09T08:26:16.246Z,14.00
2024-05-09T08:28:43.367Z,14.00
2024-05-09T08:31:13.149Z,14.10
2024-05-09T08:33:46.851Z,14.20
2024-05-09T08:36:17.221Z,14.30
2024-05-09T08:38:44.454Z,14.40
2024-05-09T08:41:16.895Z,14.50
2024-05-09T08:43:44.834Z,14.60
2024-05-09T08:46:15.699Z,14.60
2024-05-09T08:48:48.185Z,14.60
2024-05-09T08:51:18.219Z,14.70
2024-05-09T08:53:45.686Z,14.70
2024-05-09T08:56:17.393Z,14.70
2024-05-09T08:58:45.392Z,14.80
2024-05-09T09:01:16.467Z,14.80
2024-05-09T09:03:47.647Z,14.90
2024-05-09T09:06:22.940Z,15.00
2024-05-09T09:08:50.538Z,15.00
2024-05-09T09:11:20.385Z,15.10
2024-05-09T09:13:47.521Z,15.10
2024-05-09T09:16:17.447Z,15.20
2024-05-09T09:18:47.397Z,15.20
2024-05-09T09:21:17.223Z,15.30
2024-05-09T09:23:44.396Z,15.40
2024-05-09T09:26:18.797Z,15.40
2024-05-09T09:28:46.416Z,15.40
2024-05-09T09:31:20.544Z,15.50
2024-05-09T09:33:50.483Z,15.50
2024-05-09T09:36:20.605Z,15.60
2024-05-09T09:38:48.082Z,15.60
2024-05-09T09:41:22.188Z,15.70
2024-05-09T09:43:50.187Z,15.70
2024-05-09T09:46:21.959Z,15.80
2024-05-09T09:48:52.933Z,15.90
2024-05-09T09:51:24.213Z,15.90
2024-05-09T09:53:53.197Z,16.00
2024-05-09T09:56:24.412Z,16.10
2024-05-09T09:58:52.208Z,16.20
2024-05-09T10:01:23.286Z,16.20
2024-05-09T10:03:53.772Z,16.30
2024-05-09T10:06:25.104Z,16.40
2024-05-09T10:08:52.795Z,16.40
2024-05-09T10:11:23.698Z,16.50
2024-05-09T10:13:51.700Z,16.60
2024-05-09T10:16:24.037Z,16.60
2024-05-09T10:18:54.182Z,16.80
2024-05-09T10:21:24.469Z,16.80
2024-05-09T10:23:58.926Z,16.80
2024-05-09T10:26:35.871Z,16.90
2024-05-09T10:29:12.485Z,16.90
2024-05-09T10:31:44.902Z,17.00
2024-05-09T10:34:24.424Z,17.00
2024-05-09T10:36:55.887Z,17.00
2024-05-09T10:39:24.765Z,17.00
2024-05-09T10:41:54.640Z,17.00
2024-05-09T10:44:22.078Z,17.10
2024-05-09T10:46:54.634Z,17.20
2024-05-09T10:49:25.010Z,17.20
2024-05-09T10:51:55.337Z,17.20
2024-05-09T10:54:22.586Z,17.20
2024-05-09T10:56:59.213Z,17.30
2024-05-09T10:59:33.057Z,17.30
2024-05-09T11:02:07.787Z,17.40
2024-05-09T11:04:39.950Z,17.40
2024-05-09T11:07:13.158Z,17.50
2024-05-09T11:09:42.421Z,17.50
2024-05-09T11:12:12.862Z,17.50
2024-05-09T11:14:40.039Z,17.60
2024-05-09T11:17:10.994Z,17.60
2024-05-09T11:19:44.729Z,17.70
2024-05-09T11:22:14.645Z,17.70
2024-05-09T11:24:41.954Z,17.80
2024-05-09T11:27:11.870Z,17.90
2024-05-09T11:29:39.392Z,17.90
2024-05-09T11:32:11.468Z,18.00
2024-05-09T11:34:42.300Z,18.10
2024-05-09T11:37:13.766Z,18.10
2024-05-09T11:39:41.127Z,18.10
2024-05-09T11:42:10.991Z,18.10
2024-05-09T11:44:38.117Z,18.20
2024-05-09T11:47:08.049Z,18.20
2024-05-09T11:49:35.322Z,18.30
2024-05-09T11:52:08.328Z,18.40
2024-05-09T11:54:35.772Z,18.40
2024-05-09T11:57:05.629Z,18.50
2024-05-09T11:59:32.797Z,18.50
2024-05-09T12:02:02.687Z,18.60
2024-05-09T12:04:30.100Z,18.60
2024-05-09T12:07:00.153Z,18.60
2024-05-09T12:09:30.075Z,18.70
2024-05-09T12:11:59.982Z,18.70
2024-05-09T12:14:27.228Z,18.80
2024-05-09T12:16:59.241Z,18.80
2024-05-09T12:19:26.462Z,18.80
2024-05-09T12:21:56.334Z,18.80
2024-05-09T12:24:25.080Z,18.90
2024-05-09T12:26:57.707Z,18.90
2024-05-09T12:29:24.864Z,18.90
2024-05-09T12:31:54.730Z,18.90
2024-05-09T12:34:22.022Z,18.90
2024-05-09T12:36:52.129Z,19.00
2024-05-09T12:39:19.321Z,19.00
2024-05-09T12:41:49.070Z,19.00
2024-05-09T12:44:18.853Z,19.00
2024-05-09T12:46:48.649Z,19.10
2024-05-09T12:49:20.370Z,19.10
2024-05-09T12:51:47.756Z,19.10
2024-05-09T12:54:17.564Z,19.20
2024-05-09T12:56:44.740Z,19.20
2024-05-09T12:59:14.514Z,19.30
2024-05-09T13:01:44.435Z,19.30
2024-05-09T13:04:14.505Z,19.30
2024-05-09T13:06:42.081Z,19.40
2024-05-09T13:09:12.241Z,19.40
2024-05-09T13:11:39.459Z,19.50
2024-05-09T13:14:09.326Z,19.50
2024-05-09T13:16:36.528Z,19.60
2024-05-09T13:19:09.034Z,19.60
2024-05-09T13:21:36.358Z,19.60
2024-05-09T13:24:06.443Z,19.60
2024-05-09T13:26:33.630Z,19.60
2024-05-09T13:29:03.401Z,19.70
2024-05-09T13:31:30.775Z,19.70
2024-05-09T13:34:00.824Z,19.70
2024-05-09T13:36:30.806Z,19.80
2024-05-09T13:39:00.826Z,19.80
2024-05-09T13:41:27.980Z,19.80
2024-05-09T13:43:58.056Z,19.80
2024-05-09T13:46:25.347Z,19.80
2024-05-09T13:48:55.354Z,19.90
2024-05-09T13:51:22.611Z,19.90
2024-05-09T13:53:56.688Z,19.90
2024-05-09T13:56:23.967Z,19.90
2024-05-09T13:58:54.956Z,19.90
2024-05-09T14:01:22.158Z,19.90
2024-05-09T14:03:52.214Z,20.00
2024-05-09T14:06:19.656Z,20.00
2024-05-09T14:08:49.602Z,20.00
2024-05-09T14:11:19.553Z,20.00
2024-05-09T14:13:49.441Z,20.00
2024-05-09T14:16:16.687Z,20.00
2024-05-09T14:18:46.653Z,20.10
2024-05-09T14:21:14.004Z,20.10
2024-05-09T14:23:43.959Z,20.20
2024-05-09T14:26:11.269Z,20.10
2024-05-09T14:28:43.658Z,20.10
2024-05-09T14:31:10.904Z,20.20
2024-05-09T14:33:40.868Z,20.20
2024-05-09T14:36:08.390Z,20.20
2024-05-09T14:38:38.242Z,20.20
2024-05-09T14:41:05.759Z,20.20
2024-05-09T14:43:35.891Z,20.20
2024-05-09T14:46:05.946Z,20.30
2024-05-09T14:48:35.939Z,20.30
2024-05-09T14:51:03.633Z,20.30
2024-05-09T14:53:33.441Z,20.20
2024-05-09T14:56:00.773Z,20.30
2024-05-09T14:58:30.695Z,20.40
2024-05-09T15:00:58.002Z,20.40
2024-05-09T15:03:30.624Z,20.40
2024-05-09T15:05:58.632Z,20.30
2024-05-09T15:08:28.568Z,20.30
2024-05-09T15:10:55.916Z,20.30
2024-05-09T15:13:28.927Z,20.40
2024-05-09T15:15:56.298Z,20.40
2024-05-09T15:18:26.177Z,20.40
2024-05-09T15:20:56.255Z,20.40
2024-05-09T15:23:26.053Z,20.40
2024-05-09T15:25:53.311Z,20.40
2024-05-09T15:28:23.357Z,20.40
2024-05-09T15:30:50.726Z,20.40
2024-05-09T15:33:20.957Z,20.40
2024-05-09T15:35:48.134Z,20.40
2024-05-09T15:38:20.707Z,20.50
2024-05-09T15:40:48.001Z,20.50
2024-05-09T15:43:17.977Z,20.50
2024-05-09T15:45:45.535Z,20.40
2024-05-09T15:48:15.723Z,20.50
2024-05-09T15:50:43.475Z,20.50
2024-05-09T15:53:15.780Z,20.50
2024-05-09T15:55:46.615Z,20.50
2024-05-09T15:58:17.173Z,20.50
2024-05-09T16:00:46.328Z,20.50
2024-05-09T16:03:17.928Z,20.50
2024-05-09T16:05:45.774Z,20.50
2024-05-09T16:08:17.207Z,20.50
2024-05-09T16:10:47.606Z,20.50
2024-05-09T16:13:19.712Z,20.40
2024-05-09T16:15:47.557Z,20.40
2024-05-09T16:18:17.757Z,20.40
2024-05-09T16:20:47.467Z,20.40
2024-05-09T16:23:19.590Z,20.40
2024-05-09T16:25:51.380Z,20.40
2024-05-09T16:28:22.911Z,20.40
2024-05-09T16:30:51.159Z,20.40
2024-05-09T16:33:23.597Z,20.40
2024-05-09T16:35:50.891Z,20.40
2024-05-09T16:38:21.423Z,20.40
2024-05-09T16:40:51.226Z,20.40
2024-05-09T16:43:21.720Z,20.40
2024-05-09T16:45:48.961Z,20.30
2024-05-09T16:48:19.372Z,20.30
2024-05-09T16:50:46.556Z,20.30
2024-05-09T16:53:16.321Z,20.20
2024-05-09T16:55:43.518Z,20.20
2024-05-09T16:58:16.359Z,20.20
2024-05-09T17:00:44.472Z,20.20
2024-05-09T17:03:16.455Z,20.20
2024-05-09T17:05:45.967Z,20.20
2024-05-09T17:08:18.645Z,20.20
2024-05-09T17:10:46.254Z,20.20
2024-05-09T17:13:19.692Z,20.20
2024-05-09T17:15:50.468Z,20.20
2024-05-09T17:18:18.163Z,20.20
2024-05-09T17:20:49.089Z,20.20
2024-05-09T17:23:16.540Z,20.30
2024-05-09T17:25:46.927Z,20.30
2024-05-09T17:28:16.904Z,20.30
2024-05-09T17:30:46.694Z,20.30
2024-05-09T17:33:14.045Z,20.30
2024-05-09T17:35:45.787Z,20.20
2024-05-09T17:38:13.252Z,20.30
2024-05-09T17:40:43.154Z,20.20
2024-05-09T17:43:11.124Z,20.20
2024-05-09T17:45:43.854Z,20.20
2024-05-09T17:48:12.059Z,20.20
2024-05-09T17:50:42.729Z,20.20
2024-05-09T17:53:10.473Z,20.20
2024-05-09T17:55:40.964Z,20.20
2024-05-09T17:58:09.555Z,20.10
2024-05-09T18:00:42.061Z,20.10
2024-05-09T18:03:13.592Z,20.10
2024-05-09T18:05:45.051Z,20.00
2024-05-09T18:08:12.898Z,20.00
2024-05-09T18:10:43.202Z,20.00
2024-05-09T18:13:11.805Z,20.00
2024-05-09T18:15:42.190Z,20.00
2024-05-09T18:18:12.870Z,20.00
2024-05-09T18:20:45.500Z,19.90
2024-05-09T18:23:16.258Z,19.90
2024-05-09T18:25:48.127Z,19.90
2024-05-09T18:28:15.928Z,19.90
2024-05-09T18:30:46.074Z,19.80
2024-05-09T18:33:16.351Z,19.80
2024-05-09T18:35:46.971Z,19.70
2024-05-09T18:38:14.233Z,19.70
2024-05-09T18:40:46.998Z,19.60
2024-05-09T18:43:16.286Z,19.60
2024-05-09T18:45:46.534Z,19.50
2024-05-09T18:48:16.423Z,19.50
2024-05-09T18:50:46.411Z,19.40
2024-05-09T18:53:14.594Z,19.30
2024-05-09T18:55:44.767Z,19.20
2024-05-09T18:58:12.074Z,19.20
2024-05-09T19:00:45.300Z,19.10
2024-05-09T19:03:17.283Z,19.10
2024-05-09T19:05:47.349Z,19.00
2024-05-09T19:08:15.341Z,18.80
2024-05-09T19:10:46.091Z,18.70
2024-05-09T19:13:14.440Z,18.70
2024-05-09T19:15:45.166Z,18.60
2024-05-09T19:18:13.799Z,18.50
2024-05-09T19:20:46.945Z,18.50
2024-05-09T19:23:14.110Z,18.50
2024-05-09T19:25:43.845Z,18.50
2024-05-09T19:28:11.121Z,18.40
2024-05-09T19:30:42.625Z,18.40
2024-05-09T19:33:12.072Z,18.30
2024-05-09T19:35:43.063Z,18.20
2024-05-09T19:38:13.219Z,18.20
2024-05-09T19:40:43.051Z,18.20
2024-05-09T19:43:11.057Z,18.10
2024-05-09T19:45:41.053Z,18.00
2024-05-09T19:48:08.856Z,18.00
2024-05-09T19:50:43.165Z,17.90
2024-05-09T19:53:14.663Z,17.80
2024-05-09T19:55:44.947Z,17.70
2024-05-09T19:58:12.792Z,17.70
2024-05-09T20:00:44.217Z,17.70
2024-05-09T20:03:13.062Z,17.60
2024-05-09T20:05:44.699Z,17.40
2024-05-09T20:08:14.700Z,17.30
2024-05-09T20:10:44.627Z,17.40
2024-05-09T20:13:11.931Z,17.30
2024-05-09T20:15:41.733Z,17.30
2024-05-09T20:18:09.140Z,17.20
2024-05-09T20:20:42.003Z,17.10
2024-05-09T20:23:11.676Z,17.00
2024-05-09T20:25:44.613Z,16.80
2024-05-09T20:28:11.913Z,16.90
2024-05-09T20:30:41.751Z,16.80
2024-05-09T20:33:09.944Z,16.70
2024-05-09T20:35:40.183Z,16.60
2024-05-09T20:38:07.598Z,16.50
2024-05-09T20:40:39.224Z,16.40
2024-05-09T20:43:10.450Z,16.40
2024-05-09T20:45:40.973Z,16.30
2024-05-09T20:48:09.459Z,16.30
2024-05-09T20:50:41.849Z,16.20
2024-05-09T20:53:11.250Z,16.20
2024-05-09T20:55:41.462Z,16.10
2024-05-09T20:58:11.466Z,16.10
2024-05-09T21:00:44.475Z,16.00
2024-05-09T21:03:14.972Z,16.00
2024-05-09T21:05:46.586Z,16.10
2024-05-09T21:08:14.310Z,16.00
2024-05-09T21:10:44.521Z,15.90
2024-05-09T21:13:14.529Z,15.90
2024-05-09T21:15:44.467Z,15.90
2024-05-09T21:18:11.722Z,15.90
2024-05-09T21:20:41.583Z,15.90
2024-05-09T21:23:08.723Z,15.80
2024-05-09T21:25:38.492Z,15.80
2024-05-09T21:28:06.037Z,15.80
2024-05-09T21:30:42.437Z,15.80
2024-05-09T21:33:12.529Z,15.70
2024-05-09T21:35:44.494Z,15.70
2024-05-09T21:38:13.461Z,15.70
2024-05-09T21:40:43.459Z,15.60
2024-05-09T21:43:10.772Z,15.60
2024-05-09T21:45:43.296Z,15.60
2024-05-09T21:48:13.176Z,15.60
2024-05-09T21:50:43.127Z,15.60
2024-05-09T21:53:10.982Z,15.60
2024-05-09T21:55:40.934Z,15.60
2024-05-09T21:58:08.236Z,15.60
2024-05-09T22:00:39.390Z,15.60
2024-05-09T22:03:10.973Z,15.60
2024-05-09T22:05:44.141Z,15.60
2024-05-09T22:08:11.746Z,15.50
2024-05-09T22:10:41.567Z,15.60
2024-05-09T22:13:09.204Z,15.50
2024-05-09T22:15:40.953Z,15.60
2024-05-09T22:18:11.758Z,15.50
2024-05-09T22:20:45.585Z,15.50
2024-05-09T22:23:14.579Z,15.50
2024-05-09T22:25:44.477Z,15.50
2024-05-09T22:28:14.445Z,15.50
2024-05-09T22:30:46.128Z,15.50
2024-05-09T22:33:16.453Z,15.50
2024-05-09T22:35:47.402Z,15.40
2024-05-09T22:38:14.610Z,15.40
2024-05-09T22:40:48.406Z,15.40
2024-05-09T22:43:19.249Z,15.40
2024-05-09T22:45:49.711Z,15.30
2024-05-09T22:48:19.862Z,15.30
2024-05-09T22:50:49.731Z,15.20
2024-05-09T22:53:16.895Z,15.10
2024-05-09T22:55:46.758Z,15.10
2024-05-09T22:58:13.877Z,15.10
2024-05-09T23:00:43.821Z,15.10
2024-05-09T23:03:11.669Z,15.00
2024-05-09T23:05:44.064Z,15.00
2024-05-09T23:08:11.195Z,14.90
2024-05-09T23:10:40.976Z,14.90
2024-05-09T23:13:08.574Z,14.80
2024-05-09T23:15:39.562Z,14.80
2024-05-09T23:18:07.947Z,14.80
2024-05-09T23:20:39.796Z,14.80
2024-05-09T23:23:11.538Z,14.80
2024-05-09T23:25:42.680Z,14.70
2024-05-09T23:28:09.977Z,14.70
2024-05-09T23:30:41.308Z,14.70
2024-05-09T23:33:10.992Z,14.70
2024-05-09T23:35:41.095Z,14.60
2024-05-09T23:38:10.865Z,14.50
2024-05-09T23:40:41.887Z,14.50
2024-05-09T23:43:10.755Z,14.40
2024-05-09T23:45:41.310Z,14.40
2024-05-09T23:48:09.462Z,14.40
2024-05-09T23:50:40.492Z,14.40
2024-05-09T23:53:11.289Z,14.30
2024-05-09T23:55:41.633Z,14.30
2024-05-09T23:58:09.167Z,14.20
